Stations météo

réclame
Mon MeteoGroup
Motril, Espagne (8485): Température de l'air & dewpoint: 17.05.2018 22:00:00 - 23.05.2018 22:00:00 (CEST)Motril, Espagne (8485): Vitesse du vent & gusts: 17.05.2018 22:00:00 - 23.05.2018 22:00:00 (CEST)Motril, Espagne (8485): Direction du vent: 17.05.2018 22:00:00 - 23.05.2018 22:00:00 (CEST)Motril, Espagne (8485): Quantités de précipitations: 17.05.2018 22:00:00 - 23.05.2018 22:00:00 (CEST)
Date & Time tt [°C] td [°C] ff [km/h] ff [knt] fx [km/h] fx [knt] dd rr [mm]
23.05.2018 22:00:00 21,3 14,0 5 3 10 5 SSW 0,0
23.05.2018 21:00:00 22,6 13,7 2 1 11 6 W 0,0
23.05.2018 20:00:00 22,7 14,0 5 3 28 15 SW -
23.05.2018 19:00:00 22,4 15,5 8 5 19 10 W 0,0
23.05.2018 18:00:00 23,1 14,7 7 4 17 9 SSW 0,0
23.05.2018 17:00:00 22,5 14,9 8 4 20 11 SW 0,0
23.05.2018 16:00:00 22,2 16,2 9 5 23 13 WSW 0,0
23.05.2018 15:00:00 22,4 16,2 12 7 16 9 S 0,0
23.05.2018 14:00:00 23,3 15,9 12 6 16 9 SSE -
23.05.2018 13:00:00 23,3 15,9 9 5 13 7 SSE 0,0
23.05.2018 12:00:00 22,2 15,8 3 2 9 5 SW 0,0
23.05.2018 11:00:00 21,3 15,6 5 3 11 6 SW 0,0
23.05.2018 10:00:00 19,6 15,7 6 3 15 8 S 0,0
23.05.2018 09:00:00 23,1 17,1 1 0 6 4 NE 0,0
23.05.2018 08:00:00 17,0 13,1 4 2 7 4 N -
23.05.2018 07:00:00 16,2 13,5 3 1 9 5 E 0,0
23.05.2018 06:00:00 16,4 13,9 5 3 6 4 NNE 0,0
23.05.2018 05:00:00 16,7 14,2 4 2 7 4 N 0,0
23.05.2018 04:00:00 17,5 14,6 3 1 9 5 SE 0,0
23.05.2018 03:00:00 17,1 14,2 5 3 7 4 NNE 0,0
23.05.2018 02:00:00 17,7 15,7 0 0 7 4 N -
23.05.2018 01:00:00 18,4 16,4 1 1 4 2 ENE 0,0
23.05.2018 00:00:00 18,8 16,4 0 0 7 4 S 0,0
22.05.2018 23:00:00 19,4 15,5 0 0 11 6 S 0,0
22.05.2018 22:00:00 20,9 15,2 2 1 9 5 SSW 0,0
22.05.2018 21:00:00 21,7 14,8 1 1 10 5 E 0,0
22.05.2018 20:00:00 21,5 15,8 5 3 15 8 W -
22.05.2018 19:00:00 21,0 16,6 9 5 14 7 SSW 0,0
22.05.2018 18:00:00 21,9 16,0 7 4 16 9 SSW 0,0
22.05.2018 17:00:00 21,5 16,7 10 5 17 9 SSW 0,0
22.05.2018 16:00:00 21,1 16,9 9 5 17 9 S 0,0
22.05.2018 15:00:00 21,7 16,7 10 5 17 9 S 0,0
22.05.2018 14:00:00 21,5 16,5 11 6 16 9 S -
22.05.2018 13:00:00 23,0 17,0 6 3 13 7 SSE 0,0
22.05.2018 12:00:00 20,5 16,5 8 5 19 10 S 0,0
22.05.2018 11:00:00 21,1 16,3 13 7 18 10 SSE 0,0
22.05.2018 10:00:00 19,7 15,8 11 6 17 9 S 0,0
22.05.2018 09:00:00 20,5 15,5 9 5 11 6 ESE 0,0
22.05.2018 08:00:00 17,6 13,7 5 3 7 4 SSE -
22.05.2018 07:00:00 15,3 12,6 1 1 6 4 E 0,0
22.05.2018 06:00:00 16,2 13,5 4 2 7 4 SSE 0,0
22.05.2018 05:00:00 15,8 13,5 2 1 8 4 E 0,0
22.05.2018 04:00:00 16,3 14,1 0 0 7 4 N 0,0
22.05.2018 03:00:00 16,7 14,7 2 1 7 4 NNW 0,0
22.05.2018 02:00:00 17,8 15,8 6 3 15 8 WNW -
22.05.2018 01:00:00 17,9 15,3 4 2 11 6 SW 0,0
22.05.2018 00:00:00 17,5 15,1 3 2 15 8 NNE 0,0
21.05.2018 23:00:00 18,5 16,5 9 5 21 11 W 0,0
21.05.2018 22:00:00 18,8 15,9 8 4 16 9 W 0,0
21.05.2018 21:00:00 19,6 16,1 8 4 26 14 W 0,0
21.05.2018 20:00:00 20,6 16,6 6 3 19 11 WSW -
21.05.2018 19:00:00 20,6 16,4 12 6 22 12 SW 0,0
21.05.2018 18:00:00 20,5 15,7 14 7 21 11 SW 0,0
21.05.2018 17:00:00 20,3 15,7 11 6 18 10 SW 0,0
21.05.2018 16:00:00 20,5 16,3 9 5 16 9 SSW 0,0
21.05.2018 15:00:00 20,2 16,2 9 5 16 9 SSW 0,0
21.05.2018 14:00:00 19,9 15,8 10 5 16 9 SSW -
21.05.2018 13:00:00 20,3 16,3 10 5 14 7 S 0,0
21.05.2018 12:00:00 20,7 16,1 8 4 12 6 S 0,0
21.05.2018 11:00:00 21,0 15,3 6 3 10 5 S 0,0
21.05.2018 10:00:00 22,4 15,3 4 2 6 3 SSE 0,0
21.05.2018 09:00:00 20,1 15,3 3 1 6 3 NW 0,0
21.05.2018 08:00:00 16,4 13,5 5 3 7 4 NNE -
21.05.2018 07:00:00 15,5 13,0 2 1 6 4 N 0,0
21.05.2018 06:00:00 15,9 13,6 6 3 7 4 NE 0,0
21.05.2018 05:00:00 16,2 13,9 0 0 4 2 WNW 0,0
21.05.2018 04:00:00 16,2 13,7 1 0 6 3 NNE 0,0
21.05.2018 03:00:00 16,1 13,6 3 2 7 4 NE 0,0
21.05.2018 02:00:00 16,6 14,1 1 1 5 3 NW -
21.05.2018 01:00:00 16,8 13,9 2 1 6 4 NNW 0,0
21.05.2018 00:00:00 17,4 14,1 3 2 6 3 NNE 0,0
20.05.2018 23:00:00 18,1 15,0 1 1 6 3 N 0,0
20.05.2018 22:00:00 18,9 15,0 4 2 8 5 SW 0,0
20.05.2018 21:00:00 19,1 15,2 5 3 11 6 W 0,0
20.05.2018 20:00:00 19,7 15,6 7 4 14 8 SW -
20.05.2018 19:00:00 20,3 15,5 6 4 14 8 SW 0,0
20.05.2018 18:00:00 20,0 15,4 9 5 14 7 S 0,0
20.05.2018 17:00:00 20,8 16,0 9 5 12 6 S 0,0
20.05.2018 16:00:00 20,5 16,5 8 5 13 7 S 0,0
20.05.2018 15:00:00 20,1 16,1 8 4 15 8 S 0,0
20.05.2018 14:00:00 20,4 16,2 9 5 15 8 S -
20.05.2018 13:00:00 20,7 16,3 9 5 16 9 S 0,0
20.05.2018 12:00:00 21,6 16,6 12 6 17 9 SE 0,0
20.05.2018 11:00:00 21,2 16,4 11 6 15 8 SE 0,0
20.05.2018 10:00:00 21,8 15,2 6 3 7 4 SE 0,0
20.05.2018 09:00:00 22,5 15,8 0 0 3 2 SE 0,0
20.05.2018 08:00:00 17,2 14,1 1 1 6 3 NNW -
20.05.2018 07:00:00 15,8 13,1 5 3 10 5 NNE 0,0
20.05.2018 06:00:00 16,0 13,3 4 2 9 5 ENE 0,0
20.05.2018 05:00:00 16,3 13,4 0 0 6 4 ENE 0,0
20.05.2018 04:00:00 16,4 13,7 2 1 7 4 NE 0,0
20.05.2018 03:00:00 17,1 14,2 2 1 6 3 NE 0,0
20.05.2018 02:00:00 17,8 14,7 3 2 7 4 ESE -
20.05.2018 01:00:00 18,6 14,7 3 2 8 4 NW 0,0
20.05.2018 00:00:00 18,4 14,9 0 0 5 3 NW 0,0
19.05.2018 23:00:00 18,6 14,7 1 1 10 5 NNE 0,0
19.05.2018 22:00:00 18,9 15,0 5 3 13 7 W 0,0
19.05.2018 21:00:00 19,3 15,2 4 2 10 5 SW 0,0
19.05.2018 20:00:00 19,8 15,7 6 3 12 7 SW -
19.05.2018 19:00:00 20,6 15,8 7 4 13 7 SSW 0,0
19.05.2018 18:00:00 21,6 16,1 5 3 16 9 S 0,0
19.05.2018 17:00:00 20,1 15,7 13 7 18 10 SW 0,0
19.05.2018 16:00:00 20,4 15,8 9 5 15 8 S 0,0
19.05.2018 15:00:00 20,3 15,7 9 5 31 17 S 0,0
19.05.2018 14:00:00 19,8 15,5 9 5 15 8 S -
19.05.2018 13:00:00 19,4 15,5 10 6 14 7 S 0,0
19.05.2018 12:00:00 19,7 15,6 10 5 15 8 S 0,0
19.05.2018 11:00:00 20,7 15,7 12 6 15 8 SE 0,0
19.05.2018 10:00:00 21,4 14,3 6 4 9 5 SE 0,0
19.05.2018 09:00:00 21,7 15,3 0 0 8 5 SE 0,0
19.05.2018 08:00:00 16,2 12,9 3 2 8 4 NE -
19.05.2018 07:00:00 14,9 12,9 1 0 5 3 NNE 0,0
19.05.2018 06:00:00 15,2 13,4 1 1 5 3 NE 0,0
19.05.2018 05:00:00 16,1 14,1 3 1 5 3 NE 0,0
19.05.2018 04:00:00 16,7 14,3 0 0 5 3 ENE 0,0
19.05.2018 03:00:00 16,8 15,0 2 1 5 3 E 0,0
19.05.2018 02:00:00 17,8 15,6 2 1 8 4 NW -
19.05.2018 01:00:00 17,9 15,3 2 1 8 4 NW 0,0
19.05.2018 00:00:00 17,8 14,5 3 2 7 4 NW 0,0
18.05.2018 23:00:00 18,4 14,5 4 2 9 5 ESE 0,0
18.05.2018 22:00:00 18,6 14,7 7 4 10 5 SE 0,0
18.05.2018 21:00:00 19,0 15,1 8 4 15 8 SE 0,0
18.05.2018 20:00:00 19,8 15,9 8 5 11 6 SE -
18.05.2018 19:00:00 19,6 15,5 6 3 11 6 SE 0,0
18.05.2018 18:00:00 19,8 15,0 6 3 14 7 SSE 0,0
18.05.2018 17:00:00 19,7 14,9 7 4 13 7 S 0,0
18.05.2018 16:00:00 21,1 16,3 7 4 15 8 SSE 0,0
18.05.2018 15:00:00 20,7 15,9 8 5 15 8 S 0,0
18.05.2018 14:00:00 20,3 15,5 10 5 16 8 SSE -
18.05.2018 13:00:00 20,5 15,9 10 5 16 8 S 0,0
18.05.2018 12:00:00 19,1 14,4 8 5 12 6 S 0,0
18.05.2018 11:00:00 22,0 16,1 6 4 9 5 SE 0,0
18.05.2018 10:00:00 21,8 16,1 4 2 5 3 SE 0,0
18.05.2018 09:00:00 19,8 15,9 1 0 6 3 NNE 0,0
18.05.2018 08:00:00 15,8 14,2 3 1 5 3 NE -
18.05.2018 07:00:00 14,2 12,8 0 0 6 3 NW 0,0
18.05.2018 06:00:00 15,1 13,5 3 1 8 4 NNE 0,0
18.05.2018 05:00:00 14,9 13,3 5 3 7 4 NE 0,0
18.05.2018 04:00:00 14,9 13,3 2 1 4 2 NE 0,0
18.05.2018 03:00:00 16,4 14,6 3 1 7 4 WNW 0,0
18.05.2018 02:00:00 16,4 13,9 2 1 9 5 NNW -
18.05.2018 01:00:00 17,3 13,4 2 1 11 6 NNW 0,0
18.05.2018 00:00:00 18,0 13,7 8 4 13 7 SE 0,0
17.05.2018 23:00:00 18,3 13,8 6 3 21 12 E 0,0
17.05.2018 22:00:00 18,2 13,7 13 7 28 15 E 0,0

tt = Température de l'air
td = dewpoint
ff = Vitesse du vent
fx = gusts
dd = Direction du vent
rr = Quantités de précipitations

stations d'obs. à proximité